createdAt,value
2019-05-26T00:04:24.784Z,12.78
2019-05-26T00:10:30.558Z,12.75
2019-05-26T00:16:36.780Z,12.74
2019-05-26T00:22:42.852Z,12.62
2019-05-26T00:28:48.609Z,12.56
2019-05-26T00:34:54.579Z,12.52
2019-05-26T00:41:00.597Z,12.46
2019-05-26T00:47:06.811Z,12.45
2019-05-26T00:53:13.222Z,12.39
2019-05-26T00:59:19.154Z,12.32
2019-05-26T01:05:24.908Z,12.19
2019-05-26T01:11:30.709Z,12.06
2019-05-26T01:17:36.447Z,12.05
2019-05-26T01:23:42.233Z,12.05
2019-05-26T01:29:48.268Z,11.93
2019-05-26T01:35:54.681Z,11.85
2019-05-26T01:42:00.509Z,11.81
2019-05-26T01:48:07.368Z,11.77
2019-05-26T01:54:13.285Z,11.80
2019-05-26T02:00:19.854Z,11.87
2019-05-26T02:06:26.095Z,11.88
2019-05-26T02:12:32.918Z,11.86
2019-05-26T02:18:39.111Z,11.82
2019-05-26T02:24:45.197Z,11.87
2019-05-26T02:30:51.145Z,11.97
2019-05-26T02:36:57.021Z,11.99
2019-05-26T02:43:03.426Z,12.01
2019-05-26T02:49:09.351Z,12.12
2019-05-26T02:55:16.115Z,12.25
2019-05-26T03:01:21.929Z,12.31
2019-05-26T03:07:28.496Z,12.46
2019-05-26T03:13:36.985Z,12.54
2019-05-26T03:19:44.589Z,12.59
2019-05-26T03:25:50.400Z,12.57
2019-05-26T03:31:56.331Z,12.55
2019-05-26T03:38:02.201Z,12.52
2019-05-26T03:44:08.032Z,12.46
2019-05-26T03:50:13.859Z,12.48
2019-05-26T03:56:19.660Z,12.50
2019-05-26T04:02:25.651Z,12.56
2019-05-26T04:08:31.589Z,12.52
2019-05-26T04:14:37.442Z,12.62
2019-05-26T04:20:45.938Z,12.70
2019-05-26T04:26:50.718Z,12.73
2019-05-26T04:32:56.481Z,12.75
2019-05-26T04:39:02.364Z,12.85
2019-05-26T04:45:08.368Z,13.05
2019-05-26T04:51:14.286Z,13.24
2019-05-26T04:57:20.300Z,13.41
2019-05-26T05:03:26.071Z,13.53
2019-05-26T05:09:31.816Z,13.70
2019-05-26T05:15:37.612Z,13.84
2019-05-26T05:21:43.369Z,14.08
2019-05-26T05:27:49.548Z,14.27
2019-05-26T05:33:55.438Z,14.32
2019-05-26T05:40:01.425Z,14.40
2019-05-26T05:46:07.226Z,14.50
2019-05-26T05:52:13.043Z,14.56
2019-05-26T05:58:19.339Z,14.73
2019-05-26T06:04:25.445Z,14.90
2019-05-26T06:10:31.348Z,15.05
2019-05-26T06:16:38.102Z,15.24
2019-05-26T06:22:43.888Z,15.42
2019-05-26T06:28:52.314Z,15.64
2019-05-26T06:34:57.205Z,15.82
2019-05-26T06:41:03.089Z,16.04
2019-05-26T06:47:08.861Z,16.23
2019-05-26T06:53:14.915Z,16.48
2019-05-26T06:59:21.082Z,16.67
2019-05-26T07:05:26.901Z,16.79
2019-05-26T07:11:48.991Z,16.95
2019-05-26T07:17:40.294Z,17.04
2019-05-26T07:23:46.303Z,17.11
2019-05-26T07:29:52.079Z,17.15
2019-05-26T07:35:57.845Z,17.24
2019-05-26T07:42:10.446Z,17.42
2019-05-26T07:48:11.773Z,17.63
2019-05-26T07:54:25.650Z,17.81
2019-05-26T08:00:25.504Z,18.23
2019-05-26T08:06:31.424Z,18.55
2019-05-26T08:12:37.441Z,18.68
2019-05-26T08:18:43.279Z,18.84
2019-05-26T08:24:49.058Z,19.06
2019-05-26T08:30:55.040Z,19.15
2019-05-26T08:37:01.277Z,19.29
2019-05-26T08:43:07.238Z,19.27
2019-05-26T08:49:13.267Z,19.27
2019-05-26T08:55:19.850Z,19.44
2019-05-26T09:01:26.560Z,19.54
2019-05-26T09:07:32.548Z,19.77
2019-05-26T09:13:39.110Z,19.88
2019-05-26T09:19:44.974Z,20.06
2019-05-26T09:25:50.873Z,20.19
2019-05-26T09:31:56.854Z,20.09
2019-05-26T09:38:02.722Z,20.10
2019-05-26T09:44:09.937Z,20.25
2019-05-26T09:50:17.156Z,20.46
2019-05-26T09:56:23.198Z,20.59
2019-05-26T10:02:29.046Z,20.74
2019-05-26T10:08:35.172Z,20.75
2019-05-26T10:14:41.521Z,20.84
2019-05-26T10:20:47.609Z,21.08
2019-05-26T10:26:56.335Z,21.19
2019-05-26T10:33:02.308Z,21.39
2019-05-26T10:39:10.107Z,21.53
2019-05-26T10:45:16.258Z,21.80
2019-05-26T10:51:22.344Z,21.80
2019-05-26T10:57:28.145Z,22.00
2019-05-26T11:03:34.225Z,22.12
2019-05-26T11:09:40.896Z,22.12
2019-05-26T11:15:47.329Z,22.43
2019-05-26T11:21:53.198Z,22.45
2019-05-26T11:27:59.070Z,22.52
2019-05-26T11:34:05.196Z,22.45
2019-05-26T11:40:24.298Z,22.42
2019-05-26T11:46:30.367Z,22.58
2019-05-26T11:52:36.347Z,22.86
2019-05-26T11:58:42.233Z,23.02
2019-05-26T12:04:48.347Z,23.03
2019-05-26T12:10:58.148Z,23.08
2019-05-26T12:17:02.354Z,23.14
2019-05-26T12:23:08.555Z,23.30
2019-05-26T12:29:14.850Z,23.39
2019-05-26T12:35:21.123Z,23.24
2019-05-26T12:41:27.544Z,23.06
2019-05-26T12:47:33.508Z,23.05
2019-05-26T12:53:39.945Z,23.25
2019-05-26T12:59:45.771Z,23.57
2019-05-26T13:05:52.057Z,23.65
2019-05-26T13:11:58.143Z,23.72
2019-05-26T13:18:05.242Z,23.84
2019-05-26T13:24:11.301Z,24.03
2019-05-26T13:30:20.268Z,24.45
2019-05-26T13:36:26.526Z,24.50
2019-05-26T13:42:33.231Z,24.49
2019-05-26T13:48:39.964Z,24.33
2019-05-26T13:54:46.210Z,24.19
2019-05-26T14:00:52.514Z,24.17
2019-05-26T14:07:04.272Z,24.35
2019-05-26T14:13:10.782Z,24.49
2019-05-26T14:19:19.442Z,24.54
2019-05-26T14:25:25.344Z,24.47
2019-05-26T14:31:31.844Z,24.40
2019-05-26T14:37:38.045Z,24.29
2019-05-26T14:43:44.519Z,24.02
2019-05-26T14:49:50.856Z,24.04
2019-05-26T14:55:56.813Z,23.93
2019-05-26T15:02:03.099Z,23.83
2019-05-26T15:08:09.251Z,23.74
2019-05-26T15:14:15.253Z,23.59
2019-05-26T15:20:21.651Z,23.32
2019-05-26T15:26:27.475Z,23.22
2019-05-26T15:32:33.341Z,23.35
2019-05-26T15:38:42.789Z,23.49
2019-05-26T15:44:46.847Z,23.46
2019-05-26T15:50:52.692Z,23.45
2019-05-26T15:56:58.541Z,23.30
2019-05-26T16:03:04.680Z,23.23
2019-05-26T16:09:10.623Z,23.05
2019-05-26T16:15:17.421Z,22.86
2019-05-26T16:21:27.939Z,22.79
2019-05-26T16:27:31.997Z,22.75
2019-05-26T16:33:37.899Z,22.71
2019-05-26T16:39:44.131Z,22.62
2019-05-26T16:45:56.062Z,22.60
2019-05-26T16:51:58.872Z,22.46
2019-05-26T16:58:06.868Z,22.32
2019-05-26T17:04:13.767Z,22.40
2019-05-26T17:10:20.048Z,22.49
2019-05-26T17:16:26.231Z,22.45
2019-05-26T17:22:32.281Z,22.50
2019-05-26T17:28:38.646Z,22.58
2019-05-26T17:34:45.109Z,22.63
2019-05-26T17:40:51.571Z,22.68
2019-05-26T17:46:57.529Z,22.64
2019-05-26T17:53:04.286Z,22.63
2019-05-26T17:59:10.427Z,22.74
2019-05-26T18:05:17.384Z,22.90
2019-05-26T18:11:24.103Z,22.86
2019-05-26T18:17:45.958Z,22.80
2019-05-26T18:23:39.365Z,22.61
2019-05-26T18:29:45.677Z,22.40
2019-05-26T18:35:51.953Z,22.13
2019-05-26T18:41:58.499Z,21.94
2019-05-26T18:48:04.437Z,21.71
2019-05-26T18:54:10.289Z,21.55
2019-05-26T19:00:17.228Z,21.41
2019-05-26T19:06:23.548Z,21.30
2019-05-26T19:12:29.508Z,21.15
2019-05-26T19:18:35.509Z,20.98
2019-05-26T19:24:41.555Z,20.82
2019-05-26T19:30:49.160Z,20.60
2019-05-26T19:36:54.949Z,20.41
2019-05-26T19:43:01.070Z,20.29
2019-05-26T19:49:07.235Z,20.13
2019-05-26T19:55:14.147Z,20.06
2019-05-26T20:01:20.179Z,19.94
2019-05-26T20:07:25.980Z,19.85
2019-05-26T20:13:31.931Z,19.89
2019-05-26T20:19:38.001Z,19.96
2019-05-26T20:25:43.922Z,19.99
2019-05-26T20:31:49.829Z,19.95
2019-05-26T20:37:55.974Z,19.97
2019-05-26T20:44:01.923Z,19.91
2019-05-26T20:50:08.127Z,19.81
2019-05-26T20:56:14.112Z,19.69
2019-05-26T21:02:20.041Z,19.65
2019-05-26T21:08:25.885Z,19.57
2019-05-26T21:14:31.680Z,19.46
2019-05-26T21:20:37.885Z,19.40
2019-05-26T21:26:44.837Z,19.30
2019-05-26T21:32:50.946Z,19.15
2019-05-26T21:38:57.123Z,18.99
2019-05-26T21:45:03.516Z,18.82
2019-05-26T21:51:09.936Z,18.70
2019-05-26T21:57:15.761Z,18.59
2019-05-26T22:03:21.935Z,18.51
2019-05-26T22:09:27.981Z,18.42
2019-05-26T22:15:34.002Z,18.41
2019-05-26T22:21:40.151Z,18.33
2019-05-26T22:27:46.081Z,18.31
2019-05-26T22:33:51.985Z,18.30
2019-05-26T22:39:57.985Z,18.19
2019-05-26T22:46:03.962Z,18.17
2019-05-26T22:52:10.086Z,18.04
2019-05-26T22:58:16.100Z,18.11
2019-05-26T23:04:22.053Z,18.02
2019-05-26T23:10:28.445Z,17.90
2019-05-26T23:16:34.415Z,17.85
2019-05-26T23:22:40.200Z,17.77
2019-05-26T23:28:46.477Z,17.79
2019-05-26T23:34:54.158Z,17.78
2019-05-26T23:41:00.054Z,17.76
2019-05-26T23:47:06.963Z,17.75
2019-05-26T23:53:12.748Z,17.66
2019-05-26T23:59:18.633Z,17.64
